Forsyth, Illinois
Current Conditions -  °F | °C
As of 5:54 AM on Saturday 25 Oct 2014 (Local Time) from KDEC Reporting Station
Few Clouds Few Clouds  
Wind Chill: 57°   Ceiling: Unl
Heat Index: 57°   Visibility: 10mi
Dew Point: 54°   Wind: 7mph
Humidity: 89%   Direction: 270°W
Pressure: 29.98"   Gusts: NA
Location:  39.93°N, 88.95°W
Report Text: KDEC 251054Z 27006KT 10SM FEW014 14/12 A2998 RMK AO2 SLP151 T01390122
Loading
Personal Weather Stations






























Interactive Weather Map New forecast layout! Learn more

10-Day Weather Forecast

Advertisements
Track Severe Weather on mobile